Time;durP1;ratioP1;P1;durP2;ratioP2;P2;SDS_P1;SDS_P2;PMS_P1;PMS_P2;Temp;Humidity;BMP_temperature;BMP_pressure;BME280_temperature;BME280_humidity;BME280_pressure;Samples;Min_cycle;Max_cycle;Signal;HPM_P1;HPM_P2
2023/12/11 00:00:35;;;;;;;14.48;2.50;;;;;;;4.97;100.00;99486.50;4966962;28;20030;-73
2023/12/11 00:03:03;;;;;;;11.27;2.25;;;;;;;4.92;100.00;99488.06;4985497;28;20112;-75
2023/12/11 00:05:29;;;;;;;14.25;2.42;;;;;;;4.94;100.00;99482.50;4964400;28;20038;-73
2023/12/11 00:07:54;;;;;;;12.02;2.42;;;;;;;4.91;100.00;99488.34;4969776;28;20507;-73
2023/12/11 00:10:20;;;;;;;6.28;2.20;;;;;;;4.93;100.00;99480.91;4981831;28;20058;-73
2023/12/11 00:12:46;;;;;;;6.80;2.03;;;;;;;4.93;100.00;99470.28;4954663;28;20038;-73
2023/12/11 00:15:13;;;;;;;5.50;1.83;;;;;;;4.93;100.00;99480.91;4960714;28;20050;-73
2023/12/11 00:17:38;;;;;;;7.88;1.85;;;;;;;4.91;100.00;99473.22;4982978;28;20038;-73
2023/12/11 00:20:05;;;;;;;9.15;1.73;;;;;;;4.89;100.00;99466.59;4984814;28;20030;-73
2023/12/11 00:22:30;;;;;;;6.97;2.10;;;;;;;4.86;100.00;99459.94;4967124;28;20096;-73
2023/12/11 00:24:56;;;;;;;5.88;1.92;;;;;;;4.87;100.00;99456.22;4983869;28;20046;-73
2023/12/11 00:27:23;;;;;;;7.82;1.98;;;;;;;4.85;100.00;99457.53;4981625;28;20034;-73
2023/12/11 00:29:50;;;;;;;7.28;1.70;;;;;;;4.82;100.00;99450.13;4983395;28;20085;-74
2023/12/11 00:32:15;;;;;;;9.43;2.20;;;;;;;4.83;100.00;99454.38;4982114;28;20038;-73
2023/12/11 00:34:41;;;;;;;7.00;1.70;;;;;;;4.85;100.00;99458.34;4985395;28;20037;-74
2023/12/11 00:37:07;;;;;;;9.00;2.10;;;;;;;4.85;100.00;99452.25;4982778;28;20579;-71
2023/12/11 00:39:32;;;;;;;7.88;1.75;;;;;;;4.84;100.00;99450.66;4955310;28;20049;-73
2023/12/11 00:41:58;;;;;;;11.05;2.10;;;;;;;4.83;100.00;99447.19;4984736;28;20081;-74
2023/12/11 00:44:24;;;;;;;5.85;1.88;;;;;;;4.79;100.00;99443.47;4967283;28;20644;-74
2023/12/11 00:46:50;;;;;;;7.88;1.52;;;;;;;4.82;100.00;99447.47;4985387;28;20034;-74
2023/12/11 00:49:17;;;;;;;5.97;1.65;;;;;;;4.82;100.00;99439.50;4979378;28;20121;-73
2023/12/11 00:51:46;;;;;;;3.58;1.77;;;;;;;4.78;100.00;99430.47;4985253;28;20567;-73
2023/12/11 00:54:12;;;;;;;11.38;2.50;;;;;;;4.78;100.00;99425.19;4980349;28;20097;-73
2023/12/11 00:56:39;;;;;;;7.70;1.77;;;;;;;4.75;100.00;99423.06;4985183;28;20099;-73
2023/12/11 00:59:05;;;;;;;10.93;1.88;;;;;;;4.75;100.00;99423.84;4964249;28;20034;-73
2023/12/11 01:01:32;;;;;;;11.45;1.92;;;;;;;4.82;100.00;99431.56;4981903;28;20129;-74
2023/12/11 01:03:58;;;;;;;9.35;1.85;;;;;;;4.83;100.00;99433.16;4979080;28;20193;-73
2023/12/11 01:06:24;;;;;;;4.07;1.75;;;;;;;4.79;100.00;99429.41;4981138;28;20055;-73
2023/12/11 01:08:51;;;;;;;10.18;1.77;;;;;;;4.78;100.00;99422.53;4982665;28;20049;-72
2023/12/11 01:11:19;;;;;;;13.00;2.75;;;;;;;4.79;100.00;99426.75;4981496;28;20034;-73
2023/12/11 01:13:45;;;;;;;8.23;1.90;;;;;;;4.79;100.00;99427.56;4980943;28;20416;-71
2023/12/11 01:16:11;;;;;;;9.60;2.30;;;;;;;4.79;100.00;99437.38;4980532;28;20061;-72
2023/12/11 01:18:36;;;;;;;8.30;1.95;;;;;;;4.78;100.00;99433.94;4984259;28;20030;-71
2023/12/11 01:21:02;;;;;;;9.60;1.75;;;;;;;4.75;100.00;99441.63;4968747;28;20030;-75
2023/12/11 01:23:29;;;;;;;11.02;2.40;;;;;;;4.78;100.00;99439.22;4984982;28;20112;-73
2023/12/11 01:25:57;;;;;;;8.90;1.85;;;;;;;4.79;100.00;99454.09;4981751;28;20629;-73
2023/12/11 01:28:24;;;;;;;6.95;1.90;;;;;;;4.80;100.00;99441.63;4962737;28;20707;-74
2023/12/11 01:30:50;;;;;;;10.13;1.90;;;;;;;4.78;100.00;99446.41;4980038;28;20038;-72
2023/12/11 01:33:16;;;;;;;13.15;2.00;;;;;;;4.80;100.00;99436.31;4964926;28;20049;-72
2023/12/11 01:35:43;;;;;;;7.70;2.20;;;;;;;4.76;100.00;99435.25;4961428;28;20026;-72
2023/12/11 01:38:14;;;;;;;9.52;1.85;;;;;;;4.78;100.00;99441.88;4965960;28;20253;-73
2023/12/11 01:40:46;;;;;;;10.95;2.53;;;;;;;4.79;100.00;99442.69;4965454;28;20704;-71
2023/12/11 01:43:14;;;;;;;10.48;2.58;;;;;;;4.79;100.00;99437.38;4961396;28;20057;-72
2023/12/11 01:45:40;;;;;;;14.77;2.60;;;;;;;4.80;100.00;99447.72;4975765;28;20061;-72
2023/12/11 01:48:07;;;;;;;8.00;1.90;;;;;;;4.81;100.00;99448.50;4964606;28;20408;-72
2023/12/11 01:50:35;;;;;;;11.23;2.28;;;;;;;4.83;100.00;99457.81;4982024;28;20061;-72
2023/12/11 01:53:18;;;;;;;7.05;2.25;;;;;;;4.84;100.00;99454.09;4973493;28;20085;-72
2023/12/11 01:55:48;;;;;;;8.23;3.05;;;;;;;4.84;100.00;99456.75;4976277;28;20122;-71
2023/12/11 01:58:15;;;;;;;7.80;2.20;;;;;;;4.84;100.00;99450.66;4973444;28;20042;-72
2023/12/11 02:00:41;;;;;;;7.93;2.40;;;;;;;4.85;100.00;99462.84;4973950;28;20035;-72
2023/12/11 02:03:11;;;;;;;10.82;2.50;;;;;;;4.84;100.00;99456.75;4975881;28;20232;-73
2023/12/11 02:05:44;;;;;;;7.70;2.05;;;;;;;4.85;100.00;99453.03;4977095;28;20157;-72
2023/12/11 02:08:19;;;;;;;8.35;2.28;;;;;;;4.86;100.00;99459.94;4978591;28;20050;-73
2023/12/11 02:10:45;;;;;;;8.15;2.45;;;;;;;4.86;100.00;99464.44;4983396;28;20042;-73
2023/12/11 02:13:13;;;;;;;5.45;2.10;;;;;;;4.88;100.00;99468.44;4977958;28;20478;-75
2023/12/11 02:15:46;;;;;;;7.00;2.67;;;;;;;4.88;100.00;99462.34;4980366;28;20076;-73
2023/12/11 02:18:18;;;;;;;9.68;2.67;;;;;;;4.90;100.00;99470.81;4963493;28;20034;-74
2023/12/11 02:20:46;;;;;;;8.65;2.80;;;;;;;4.93;100.00;99470.28;4982913;28;20036;-72
2023/12/11 02:23:17;;;;;;;7.05;2.60;;;;;;;4.96;100.00;99472.44;4979284;28;20058;-74
2023/12/11 02:26:00;;;;;;;12.55;4.45;;;;;;;5.05;100.00;99462.88;4979430;28;20133;-74
2023/12/11 02:28:26;;;;;;;8.75;3.67;;;;;;;5.12;100.00;99463.41;4957476;28;20132;-71
2023/12/11 02:31:03;;;;;;;10.18;4.03;;;;;;;5.16;100.00;99450.44;4979249;28;20638;-72
2023/12/11 02:33:46;;;;;;;10.43;4.38;;;;;;;5.26;100.00;99452.28;4976664;28;20051;-73
2023/12/11 02:36:13;;;;;;;13.90;5.13;;;;;;;5.33;100.00;99455.47;4986103;28;20514;-72
2023/12/11 02:38:47;;;;;;;13.27;6.18;;;;;;;5.39;100.00;99457.06;4965216;28;20853;-74
2023/12/11 02:41:12;;;;;;;15.18;5.80;;;;;;;5.48;100.00;99450.13;4963636;28;20076;-73
2023/12/11 02:43:41;;;;;;;16.05;6.47;;;;;;;5.57;100.00;99448.53;4965213;28;20069;-72
2023/12/11 02:46:12;;;;;;;17.85;6.95;;;;;;;5.66;100.00;99457.56;4980074;28;20074;-72
2023/12/11 02:48:39;;;;;;;19.33;6.80;;;;;;;5.73;100.00;99452.75;4986531;28;20492;-75
2023/12/11 02:51:06;;;;;;;22.77;6.50;;;;;;;5.78;100.00;99448.50;4984554;28;20039;-73
2023/12/11 02:53:36;;;;;;;20.02;7.28;;;;;;;5.91;100.00;99459.41;4984804;28;20124;-73
2023/12/11 02:56:03;;;;;;;;;;;;;;;5.94;100.00;99458.06;4984420;28;20124;-71
2023/12/11 02:58:30;;;;;;;22.73;7.03;;;;;;;5.92;100.00;99458.34;4967372;28;19913;-71
2023/12/11 03:00:56;;;;;;;24.38;7.53;;;;;;;5.94;100.00;99452.75;4967786;28;20030;-71
2023/12/11 03:03:23;;;;;;;18.52;7.18;;;;;;;5.96;100.00;99456.75;4979321;28;20046;-73
2023/12/11 03:05:51;;;;;;;19.02;7.30;;;;;;;5.97;100.00;99442.38;4979441;28;20069;-74
2023/12/11 03:08:18;;;;;;;18.00;6.88;;;;;;;6.04;100.00;99452.72;4981665;28;20054;-73
2023/12/11 03:10:44;;;;;;;25.80;6.85;;;;;;;6.11;100.00;99458.53;4981098;28;20077;-74
2023/12/11 03:13:11;;;;;;;17.05;6.07;;;;;;;6.16;100.00;99455.84;4979233;28;20038;-79
2023/12/11 03:15:37;;;;;;;23.63;5.50;;;;;;;6.21;100.00;99458.50;4980014;28;20042;-74
2023/12/11 03:18:03;;;;;;;21.52;6.57;;;;;;;6.31;100.00;99448.91;4948213;28;20038;-72
2023/12/11 03:20:28;;;;;;;18.15;5.35;;;;;;;6.36;100.00;99444.34;4984497;28;20124;-72
2023/12/11 03:22:54;;;;;;;;;;;;;;;6.38;100.00;99449.41;4982091;28;20050;-74
2023/12/11 03:25:30;;;;;;;18.80;5.30;;;;;;;6.42;100.00;99445.13;4963665;28;19917;-73
2023/12/11 03:28:01;;;;;;;19.60;5.20;;;;;;;6.37;100.00;99442.47;4965409;28;20034;-75
2023/12/11 03:30:28;;;;;;;15.00;4.63;;;;;;;6.41;100.00;99446.97;4979195;28;20039;-72
2023/12/11 03:32:57;;;;;;;18.55;5.40;;;;;;;6.47;100.00;99451.22;4965222;28;20070;-73
2023/12/11 03:35:24;;;;;;;19.05;4.75;;;;;;;6.47;100.00;99439.78;4967733;28;20031;-75
2023/12/11 03:37:49;;;;;;;;;;;;;;;6.52;100.00;99453.84;4956429;28;20042;-75
2023/12/11 03:40:15;;;;;;;13.80;4.53;;;;;;;6.47;100.00;99440.56;4952931;28;20020;-76
2023/12/11 03:42:40;;;;;;;20.60;3.53;;;;;;;6.49;100.00;99446.41;4957769;28;20042;-74
2023/12/11 03:45:07;;;;;;;18.55;3.30;;;;;;;6.50;100.00;99455.19;4966865;28;20042;-75
2023/12/11 03:47:32;;;;;;;19.42;3.45;;;;;;;6.55;100.00;99455.16;4964241;28;20036;-74
2023/12/11 03:49:58;;;;;;;16.67;3.17;;;;;;;6.61;100.00;99456.72;4986279;28;20579;-74
2023/12/11 03:52:24;;;;;;;16.10;2.95;;;;;;;6.63;100.00;99459.09;4984384;28;20150;-74
2023/12/11 03:54:49;;;;;;;19.70;3.10;;;;;;;6.69;100.00;99444.69;4979018;28;20038;-76
2023/12/11 03:57:16;;;;;;;;;;;;;;;6.78;100.00;99449.19;4967738;28;20084;-73
2023/12/11 03:59:41;;;;;;;21.25;3.25;;;;;;;6.79;100.00;99432.16;4966477;28;19946;-73
2023/12/11 04:02:07;;;;;;;14.75;3.53;;;;;;;6.80;100.00;99447.03;4981522;28;20092;-77
2023/12/11 04:04:33;;;;;;;19.80;2.88;;;;;;;6.83;100.00;99454.47;4985290;28;20059;-75
2023/12/11 04:06:59;;;;;;;15.25;2.75;;;;;;;6.83;100.00;99449.13;4954271;28;20432;-74
2023/12/11 04:09:27;;;;;;;15.60;3.25;;;;;;;6.93;100.00;99455.47;4979950;28;20030;-75
2023/12/11 04:11:52;;;;;;;20.20;2.63;;;;;;;6.97;100.00;99464.47;4966350;28;20072;-76
2023/12/11 04:14:18;;;;;;;22.02;2.88;;;;;;;6.98;100.00;99453.59;4982944;28;20070;-77
2023/12/11 04:16:44;;;;;;;24.63;3.28;;;;;;;7.01;100.00;99462.88;4980543;28;20587;-76
2023/12/11 04:19:11;;;;;;;22.38;3.75;;;;;;;7.02;100.00;99451.94;4970107;28;20049;-77
2023/12/11 04:21:37;;;;;;;19.40;2.85;;;;;;;7.00;100.00;99461.28;4952957;28;20037;-76
2023/12/11 04:24:03;;;;;;;13.43;2.15;;;;;;;6.95;100.00;99462.09;4985059;28;20031;-76
2023/12/11 04:26:29;;;;;;;14.23;2.50;;;;;;;6.94;100.00;99459.72;4962142;28;20045;-77
2023/12/11 04:28:55;;;;;;;22.17;3.40;;;;;;;6.96;100.00;99458.38;4952306;28;20034;-77
2023/12/11 04:31:23;;;;;;;19.02;2.92;;;;;;;6.99;100.00;99452.50;4949754;28;20034;-76
2023/12/11 04:33:50;;;;;;;22.27;3.30;;;;;;;7.01;100.00;99455.69;4969092;28;20069;-75
2023/12/11 04:36:15;;;;;;;18.75;3.28;;;;;;;7.01;100.00;99462.88;4985320;28;20060;-74
2023/12/11 04:38:41;;;;;;;28.38;3.33;;;;;;;7.04;100.00;99467.63;4951986;28;21279;-74
2023/12/11 04:41:07;;;;;;;19.73;3.03;;;;;;;7.02;100.00;99464.47;4983788;28;20057;-73
2023/12/11 04:43:33;;;;;;;18.70;3.35;;;;;;;7.02;100.00;99469.78;4979129;28;20034;-73
2023/12/11 04:45:59;;;;;;;30.65;3.72;;;;;;;7.06;100.00;99471.63;4982649;28;20037;-73
2023/12/11 04:48:25;;;;;;;27.80;3.08;;;;;;;7.07;100.00;99456.44;4962768;28;20073;-74
2023/12/11 04:50:51;;;;;;;26.38;4.28;;;;;;;7.09;100.00;99465.72;4983270;28;20050;-74
2023/12/11 04:53:16;;;;;;;31.92;4.10;;;;;;;7.14;100.00;99464.91;4964066;28;20120;-74
2023/12/11 04:55:42;;;;;;;29.52;4.95;;;;;;;7.17;100.00;99468.88;4966372;28;20038;-73
2023/12/11 04:58:08;;;;;;;23.15;5.28;;;;;;;7.17;100.00;99468.88;4963244;28;20058;-73
2023/12/11 05:00:34;;;;;;;28.40;6.57;;;;;;;7.15;100.00;99460.38;4986249;28;20065;-74
2023/12/11 05:03:00;;;;;;;;;;;;;;;7.18;100.00;99468.63;4977638;28;20121;-75
2023/12/11 05:05:26;;;;;;;33.33;6.60;;;;;;;7.19;100.00;99456.88;4966850;28;19918;-75
2023/12/11 05:07:52;;;;;;;31.00;6.90;;;;;;;7.18;100.00;99460.63;4980661;28;20205;-74
2023/12/11 05:10:17;;;;;;;28.52;6.05;;;;;;;7.19;100.00;99462.22;4972221;28;21241;-74
2023/12/11 05:12:43;;;;;;;31.63;6.57;;;;;;;7.19;100.00;99456.88;4966195;28;20045;-74
2023/12/11 05:15:10;;;;;;;;;;;;;;;7.19;100.00;99464.88;4981190;28;20069;-73
2023/12/11 05:17:36;;;;;;;32.50;4.63;;;;;;;7.19;100.00;99464.88;4978559;28;20340;-73
2023/12/11 05:20:02;;;;;;;23.63;4.85;;;;;;;7.22;100.00;99460.84;4970199;28;20048;-74
2023/12/11 05:22:29;;;;;;;29.10;5.88;;;;;;;7.22;100.00;99466.97;4994211;28;20134;-73
2023/12/11 05:24:55;;;;;;;34.92;5.13;;;;;;;7.22;100.00;99461.66;4981182;28;20133;-73
2023/12/11 05:27:21;;;;;;;29.00;4.85;;;;;;;7.23;100.00;99455.25;4985096;28;20117;-75
2023/12/11 05:29:46;;;;;;;31.85;5.47;;;;;;;7.20;100.00;99463.81;4981821;28;20042;-73
2023/12/11 05:32:14;;;;;;;31.75;5.20;;;;;;;7.13;100.00;99451.88;4947409;28;20034;-74
2023/12/11 05:34:39;;;;;;;30.13;4.65;;;;;;;7.07;100.00;99453.78;4982133;28;20030;-74
2023/12/11 05:37:05;;;;;;;32.13;4.32;;;;;;;7.03;100.00;99455.41;4965851;28;20036;-74
2023/12/11 05:39:31;;;;;;;24.55;4.45;;;;;;;6.95;100.00;99451.47;4978710;28;20061;-74
2023/12/11 05:41:57;;;;;;;25.48;4.25;;;;;;;6.95;100.00;99466.63;4984411;28;20034;-73
2023/12/11 05:44:22;;;;;;;39.40;5.32;;;;;;;6.92;100.00;99461.88;4978282;28;20030;-73
2023/12/11 05:46:49;;;;;;;31.55;4.78;;;;;;;6.90;100.00;99461.34;4981371;28;20042;-74
2023/12/11 05:49:15;;;;;;;32.47;5.60;;;;;;;6.90;100.00;99456.00;4984135;28;20039;-72
2023/12/11 05:51:40;;;;;;;32.92;5.80;;;;;;;6.90;100.00;99459.47;4967801;28;20045;-73
2023/12/11 05:54:06;;;;;;;34.92;5.35;;;;;;;6.92;100.00;99451.22;4964319;28;20590;-73
2023/12/11 05:56:32;;;;;;;33.63;5.03;;;;;;;6.90;100.00;99456.00;4963679;28;20041;-74
2023/12/11 05:58:58;;;;;;;36.75;5.20;;;;;;;6.90;100.00;99454.16;4962771;28;20065;-75
2023/12/11 06:01:25;;;;;;;36.47;5.20;;;;;;;6.89;100.00;99451.78;4970038;28;20128;-75
2023/12/11 06:03:52;;;;;;;36.67;5.38;;;;;;;6.87;100.00;99445.94;4984108;28;20104;-75
2023/12/11 06:06:17;;;;;;;35.45;5.32;;;;;;;6.86;100.00;99444.34;4951881;28;20499;-75
2023/12/11 06:08:44;;;;;;;42.50;6.85;;;;;;;6.86;100.00;99447.00;4985475;28;20049;-75
2023/12/11 06:11:10;;;;;;;35.28;6.07;;;;;;;6.88;100.00;99447.53;4966373;28;20030;-75
2023/12/11 06:13:36;;;;;;;32.30;5.63;;;;;;;6.86;100.00;99447.00;4964805;28;20034;-74
2023/12/11 06:16:02;;;;;;;34.58;5.43;;;;;;;6.87;100.00;99448.59;4968884;28;20041;-74
2023/12/11 06:18:28;;;;;;;40.35;5.85;;;;;;;6.85;100.00;99448.88;4966239;28;20027;-75
2023/12/11 06:20:58;;;;;;;39.25;5.18;;;;;;;6.86;100.00;99447.00;4984800;28;20034;-74
2023/12/11 06:23:23;;;;;;;36.75;5.65;;;;;;;6.84;100.00;99442.75;4951528;28;20046;-75
2023/12/11 06:25:49;;;;;;;39.30;5.25;;;;;;;6.81;100.00;99435.31;4963780;28;20038;-75
2023/12/11 06:28:14;;;;;;;29.35;4.93;;;;;;;6.79;100.00;99442.78;4963003;28;20045;-75
2023/12/11 06:30:40;;;;;;;26.10;4.57;;;;;;;6.79;100.00;99445.44;4978948;28;20050;-75
2023/12/11 06:33:06;;;;;;;;;;;;;;;6.75;100.00;99439.09;4967531;28;20046;-76
2023/12/11 06:35:33;;;;;;;32.47;4.80;;;;;;;6.76;100.00;99431.88;4978804;28;19925;-74
2023/12/11 06:37:59;;;;;;;29.23;4.38;;;;;;;6.77;100.00;99436.13;4961558;28;20046;-73
2023/12/11 06:40:24;;;;;;;37.35;4.75;;;;;;;6.76;100.00;99432.69;4985712;28;20034;-73
2023/12/11 06:42:50;;;;;;;32.22;5.22;;;;;;;6.74;100.00;99434.84;4965336;28;20042;-75
2023/12/11 06:45:18;;;;;;;;;;;;;;;6.78;100.00;99432.44;4965718;28;20081;-74
2023/12/11 06:47:46;;;;;;;29.65;4.60;;;;;;;6.78;100.00;99445.72;4974774;28;19918;-74
2023/12/11 06:50:12;;;;;;;27.67;4.70;;;;;;;6.76;100.00;99435.34;4984931;28;20021;-75
2023/12/11 06:52:38;;;;;;;33.83;4.13;;;;;;;6.72;100.00;99430.88;4981363;28;20089;-75
2023/12/11 06:55:05;;;;;;;28.25;4.65;;;;;;;6.70;100.00;99428.47;4984898;28;20470;-75
2023/12/11 06:57:31;;;;;;;28.55;3.50;;;;;;;6.67;100.00;99423.69;4963122;28;20049;-74
2023/12/11 06:59:56;;;;;;;20.70;3.53;;;;;;;6.63;100.00;99425.31;4979567;28;20038;-74
2023/12/11 07:02:22;;;;;;;27.55;4.10;;;;;;;6.60;100.00;99431.19;4966816;28;20072;-75
2023/12/11 07:04:48;;;;;;;27.17;4.30;;;;;;;6.60;100.00;99425.09;4998230;28;20041;-74
2023/12/11 07:07:14;;;;;;;31.70;4.63;;;;;;;6.58;100.00;99428.03;4964083;28;20069;-75
2023/12/11 07:09:40;;;;;;;24.83;4.15;;;;;;;6.55;100.00;99420.56;4981714;28;20463;-77
2023/12/11 07:12:06;;;;;;;38.67;4.72;;;;;;;6.56;100.00;99422.16;4980309;28;20079;-75
2023/12/11 07:14:31;;;;;;;34.00;5.30;;;;;;;6.59;100.00;99421.63;4966388;28;20039;-75
2023/12/11 07:16:57;;;;;;;35.33;5.78;;;;;;;6.61;100.00;99416.81;4976713;28;20038;-75
2023/12/11 07:19:23;;;;;;;38.67;6.20;;;;;;;6.65;100.00;99422.41;4967770;28;20100;-74
2023/12/11 07:21:48;;;;;;;34.95;5.80;;;;;;;6.70;100.00;99422.34;4981504;28;20101;-73
2023/12/11 07:24:14;;;;;;;34.88;4.93;;;;;;;6.72;100.00;99430.88;4981456;28;20142;-73
2023/12/11 07:27:05;;;;;;;38.60;4.95;;;;;;;6.73;100.00;99427.94;4981036;28;20507;-75
2023/12/11 07:29:31;;;;;;;33.22;4.97;;;;;;;6.76;100.00;99427.34;4958746;28;20124;-70
2023/12/11 07:31:57;;;;;;;27.33;4.50;;;;;;;6.79;100.00;99424.16;4978096;28;20169;-70
2023/12/11 07:34:23;;;;;;;24.88;4.47;;;;;;;6.80;100.00;99428.41;4945275;28;20511;-71
2023/12/11 07:36:51;;;;;;;31.85;4.75;;;;;;;6.82;100.00;99431.59;4946924;28;20035;-72
2023/12/11 07:39:17;;;;;;;37.80;5.32;;;;;;;6.87;100.00;99421.97;4964516;28;20081;-71
2023/12/11 07:41:42;;;;;;;27.48;4.45;;;;;;;6.89;100.00;99425.16;4928328;28;20127;-70
2023/12/11 07:44:08;;;;;;;31.33;5.15;;;;;;;6.89;100.00;99425.16;4966558;28;20138;-70
2023/12/11 07:46:34;;;;;;;38.00;4.97;;;;;;;6.90;100.00;99424.06;4932595;28;20042;-70
2023/12/11 07:49:00;;;;;;;18.45;3.92;;;;;;;6.90;100.00;99427.53;4961344;28;20043;-70
2023/12/11 07:51:26;;;;;;;29.35;3.72;;;;;;;6.88;100.00;99424.38;4964988;28;20579;-71
2023/12/11 07:53:57;;;;;;;24.20;3.42;;;;;;;6.88;100.00;99421.69;4951235;28;20038;-70
2023/12/11 07:56:23;;;;;;;23.10;4.25;;;;;;;6.90;100.00;99416.09;4944858;28;20039;-72
2023/12/11 07:58:52;;;;;;;25.63;5.50;;;;;;;6.90;100.00;99416.88;4948367;28;20035;-69
2023/12/11 08:01:18;;;;;;;26.35;3.90;;;;;;;6.94;100.00;99422.47;4977635;28;20022;-72
2023/12/11 08:03:44;;;;;;;22.63;4.65;;;;;;;6.94;100.00;99427.78;4963099;28;20101;-70
2023/12/11 08:06:10;;;;;;;37.88;4.85;;;;;;;6.95;100.00;99426.72;4964014;28;20076;-70
2023/12/11 08:08:45;;;;;;;21.52;3.90;;;;;;;6.94;100.00;99419.81;4961268;28;20597;-71
2023/12/11 08:11:21;;;;;;;28.77;4.75;;;;;;;6.93;100.00;99416.34;4945477;28;20150;-70
2023/12/11 08:13:47;;;;;;;24.13;4.90;;;;;;;6.95;100.00;99419.53;4962616;28;20042;-70
2023/12/11 08:16:14;;;;;;;31.40;5.10;;;;;;;6.96;100.00;99422.97;4958761;28;20045;-72
2023/12/11 08:18:41;;;;;;;23.80;3.88;;;;;;;6.99;100.00;99419.78;4966738;28;20473;-70
2023/12/11 08:21:06;;;;;;;27.38;4.97;;;;;;;7.01;100.00;99418.41;4966351;28;20090;-69
2023/12/11 08:23:32;;;;;;;24.48;4.93;;;;;;;7.04;100.00;99422.38;4952334;28;20034;-70
2023/12/11 08:25:58;;;;;;;20.83;3.67;;;;;;;7.06;100.00;99418.38;4963470;28;20152;-70
2023/12/11 08:28:23;;;;;;;25.45;4.28;;;;;;;7.07;100.00;99416.50;4948542;28;20069;-71
2023/12/11 08:30:49;;;;;;;22.98;4.18;;;;;;;7.08;100.00;99407.44;4949162;28;20598;-72
2023/12/11 08:33:14;;;;;;;28.15;4.50;;;;;;;7.13;100.00;99415.41;4962888;28;20115;-71
2023/12/11 08:35:40;;;;;;;22.13;4.38;;;;;;;7.14;100.00;99411.66;4966971;28;20042;-71
2023/12/11 08:38:06;;;;;;;22.38;4.60;;;;;;;7.17;100.00;99404.97;4960483;28;20045;-72
2023/12/11 08:40:32;;;;;;;23.92;4.15;;;;;;;7.18;100.00;99412.72;4948428;28;20035;-71
2023/12/11 08:42:58;;;;;;;22.95;5.30;;;;;;;7.19;100.00;99413.50;4946740;28;20035;-71
2023/12/11 08:45:23;;;;;;;;;;;;;;;7.21;100.00;99412.13;4965299;28;20965;-72
2023/12/11 08:47:49;;;;;;;19.58;4.72;;;;;;;7.24;100.00;99413.44;4961250;28;20606;-71
2023/12/11 08:50:15;;;;;;;27.00;4.47;;;;;;;7.26;100.00;99409.44;4932369;28;20563;-71
2023/12/11 08:52:43;;;;;;;28.33;5.03;;;;;;;7.31;100.00;99412.03;4957216;28;20417;-72
2023/12/11 08:55:08;;;;;;;27.70;5.88;;;;;;;7.33;100.00;99414.44;4987268;28;20041;-71
2023/12/11 08:57:35;;;;;;;26.63;4.97;;;;;;;7.36;100.00;99419.19;4983591;28;20043;-72
2023/12/11 09:00:03;;;;;;;28.05;5.78;;;;;;;7.39;100.00;99421.31;4962306;28;20121;-71
2023/12/11 09:02:28;;;;;;;22.10;3.65;;;;;;;7.40;100.00;99420.22;4944386;28;20032;-71
2023/12/11 09:04:54;;;;;;;26.38;4.38;;;;;;;7.43;100.00;99418.88;4931989;28;20039;-72
2023/12/11 09:07:20;;;;;;;27.92;5.35;;;;;;;7.43;100.00;99424.19;4945565;28;20046;-71
2023/12/11 09:09:45;;;;;;;26.73;4.97;;;;;;;7.43;100.00;99421.53;4965042;28;20042;-72
2023/12/11 09:12:11;;;;;;;34.95;4.80;;;;;;;7.43;100.00;99424.19;4932071;28;20074;-71
2023/12/11 09:14:37;;;;;;;24.52;5.07;;;;;;;7.43;100.00;99413.53;4980039;28;20077;-71
2023/12/11 09:17:03;;;;;;;31.15;4.72;;;;;;;7.44;100.00;99420.44;4962153;28;20045;-71
2023/12/11 09:19:29;;;;;;;27.98;5.65;;;;;;;7.45;100.00;99411.38;4961858;28;20040;-70
2023/12/11 09:21:55;;;;;;;28.70;6.03;;;;;;;7.49;100.00;99417.75;4930926;28;20031;-70
2023/12/11 09:24:20;;;;;;;30.48;4.80;;;;;;;7.51;100.00;99419.03;4930455;28;20046;-69
2023/12/11 09:26:46;;;;;;;35.13;5.22;;;;;;;7.52;100.00;99415.31;4946847;28;20047;-72
2023/12/11 09:29:12;;;;;;;25.33;4.45;;;;;;;7.56;100.00;99412.88;4962617;28;20057;-71
2023/12/11 09:31:38;;;;;;;28.77;4.65;;;;;;;7.58;100.00;99416.84;4942036;28;20122;-71
2023/12/11 09:34:03;;;;;;;30.02;5.70;;;;;;;7.60;100.00;99414.72;4947951;28;20030;-71
2023/12/11 09:36:29;;;;;;;23.38;4.45;;;;;;;7.61;100.00;99426.16;4945630;28;20042;-70
2023/12/11 09:38:55;;;;;;;33.10;4.75;;;;;;;7.64;100.00;99425.56;4945338;28;20511;-71
2023/12/11 09:41:21;;;;;;;;;;;;;;;7.62;100.00;99423.19;4973419;28;20027;-71
2023/12/11 09:43:47;;;;;;;25.55;3.95;;;;;;;7.62;100.00;99417.09;4945588;28;20176;-72
2023/12/11 09:46:18;;;;;;;19.75;3.70;;;;;;;7.62;100.00;99422.41;4977307;28;20039;-71
2023/12/11 09:48:46;;;;;;;18.10;4.80;;;;;;;7.61;100.00;99426.16;4945139;28;20034;-71
2023/12/11 09:51:13;;;;;;;27.30;4.63;;;;;;;7.63;100.00;99429.31;4964658;28;20042;-71
2023/12/11 09:53:39;;;;;;;29.50;3.72;;;;;;;7.64;100.00;99430.91;4956746;28;20133;-71
2023/12/11 09:56:05;;;;;;;22.13;4.15;;;;;;;7.64;100.00;99423.72;4964063;28;20125;-69
2023/12/11 09:58:31;;;;;;;27.02;4.30;;;;;;;7.64;100.00;99422.91;4944652;28;20121;-71
2023/12/11 10:01:00;;;;;;;25.17;4.40;;;;;;;7.66;100.00;99426.13;4943239;28;20027;-71
2023/12/11 10:03:28;;;;;;;19.13;4.00;;;;;;;7.68;100.00;99418.63;4928362;28;20542;-69
2023/12/11 10:05:59;;;;;;;20.33;3.60;;;;;;;7.70;100.00;99419.13;4930539;28;20033;-71
2023/12/11 10:08:26;;;;;;;18.83;3.55;;;;;;;7.72;100.00;99413.50;4961298;28;20587;-71
2023/12/11 10:11:19;;;;;;;16.83;4.38;;;;;;;7.73;100.00;99412.47;4934957;28;20052;-69
2023/12/11 10:13:45;;;;;;;25.33;3.58;;;;;;;7.73;100.00;99421.25;4934795;28;20047;-71
2023/12/11 10:16:33;;;;;;;20.88;4.18;;;;;;;7.75;100.00;99421.75;4933583;28;20038;-73
2023/12/11 10:19:00;;;;;;;23.27;3.70;;;;;;;7.75;100.00;99416.41;4977649;28;20540;-71
2023/12/11 10:21:38;;;;;;;15.30;3.10;;;;;;;7.75;100.00;99411.09;4939112;28;20393;-71
2023/12/11 10:24:05;;;;;;;16.27;3.25;;;;;;;7.77;100.00;99408.91;4962259;28;20085;-72
2023/12/11 10:26:32;;;;;;;17.75;3.33;;;;;;;7.80;100.00;99404.91;4962844;28;20118;-71
2023/12/11 10:29:16;;;;;;;20.35;3.30;;;;;;;7.81;100.00;99401.16;4962241;28;20073;-71
2023/12/11 10:31:42;;;;;;;17.15;3.15;;;;;;;7.79;100.00;99405.97;4963507;28;20758;-72
2023/12/11 10:34:07;;;;;;;16.60;2.80;;;;;;;7.80;100.00;99397.72;4972416;28;20042;-71
2023/12/11 10:36:33;;;;;;;15.93;2.85;;;;;;;7.81;100.00;99409.97;4943805;28;20039;-71
2023/12/11 10:39:08;;;;;;;17.00;2.92;;;;;;;7.81;100.00;99403.84;4962964;28;20045;-71
2023/12/11 10:41:34;;;;;;;15.48;2.42;;;;;;;7.83;100.00;99393.66;4956281;28;20036;-73
2023/12/11 10:43:59;;;;;;;13.75;3.17;;;;;;;7.86;100.00;99391.25;4928544;28;20042;-70
2023/12/11 10:46:26;;;;;;;16.15;2.80;;;;;;;7.90;100.00;99391.47;4945651;28;20085;-71
2023/12/11 10:48:52;;;;;;;18.58;3.53;;;;;;;7.92;100.00;99395.44;4977864;28;20043;-73
2023/12/11 10:51:18;;;;;;;14.00;3.03;;;;;;;7.93;100.00;99394.38;4944445;28;20034;-71
2023/12/11 10:53:44;;;;;;;;;;;;;;;7.95;100.00;99399.41;4945506;28;20046;-71
2023/12/11 10:56:10;;;;;;;13.65;2.42;;;;;;;7.98;100.00;99395.38;4943789;28;19918;-71
2023/12/11 10:58:35;;;;;;;15.52;2.47;;;;;;;8.01;100.00;99400.16;4958923;28;20030;-71
2023/12/11 11:01:01;;;;;;;11.20;2.38;;;;;;;8.02;100.00;99401.72;4962124;28;20035;-72
2023/12/11 11:03:30;;;;;;;13.38;2.67;;;;;;;8.03;100.00;99397.97;4961839;28;20031;-72
2023/12/11 11:05:57;;;;;;;12.18;2.97;;;;;;;8.04;100.00;99397.69;4971707;28;20336;-72
2023/12/11 11:08:48;;;;;;;11.52;2.35;;;;;;;8.05;100.00;99393.94;4939559;28;20401;-72
2023/12/11 11:11:23;;;;;;;11.05;2.10;;;;;;;8.05;100.00;99385.94;4965061;28;20125;-72
2023/12/11 11:14:12;;;;;;;16.15;3.15;;;;;;;8.07;100.00;99393.66;4949617;28;20058;-72
2023/12/11 11:16:53;;;;;;;14.27;2.60;;;;;;;8.05;100.00;99395.81;4947445;28;20588;-72
2023/12/11 11:19:19;;;;;;;12.25;2.60;;;;;;;8.04;100.00;99392.34;4955870;28;20089;-73
2023/12/11 11:22:03;;;;;;;15.45;2.55;;;;;;;8.05;100.00;99399.28;4942054;28;20035;-71
2023/12/11 11:24:32;;;;;;;16.10;2.55;;;;;;;8.06;100.00;99400.06;4964644;28;20047;-73
2023/12/11 11:26:59;;;;;;;10.15;2.33;;;;;;;8.05;100.00;99395.81;4949268;28;20049;-71
2023/12/11 11:29:39;;;;;;;10.18;2.10;;;;;;;8.02;100.00;99389.19;4952550;28;20047;-71